sensor_id;sensor_type;location;lat;lon;timestamp;pressure;altitude;pressure_sealevel;temperature;humidity
38616;BME280;24370;51.986;4.666;2022-12-18T00:00:40;102861.66;;;3.90;55.57
38616;BME280;24370;51.986;4.666;2022-12-18T00:03:06;102857.53;;;3.78;55.91
38616;BME280;24370;51.986;4.666;2022-12-18T00:05:32;102851.25;;;3.38;55.73
38616;BME280;24370;51.986;4.666;2022-12-18T00:07:57;102846.25;;;3.08;56.32
38616;BME280;24370;51.986;4.666;2022-12-18T00:10:22;102842.22;;;2.97;58.32
38616;BME280;24370;51.986;4.666;2022-12-18T00:12:48;102835.41;;;4.01;53.93
38616;BME280;24370;51.986;4.666;2022-12-18T00:15:13;102840.44;;;4.16;53.22
38616;BME280;24370;51.986;4.666;2022-12-18T00:17:39;102844.00;;;4.54;52.42
38616;BME280;24370;51.986;4.666;2022-12-18T00:20:04;102845.19;;;3.72;54.49
38616;BME280;24370;51.986;4.666;2022-12-18T00:22:30;102844.44;;;4.09;53.82
38616;BME280;24370;51.986;4.666;2022-12-18T00:24:55;102847.06;;;3.74;55.28
38616;BME280;24370;51.986;4.666;2022-12-18T00:27:21;102856.72;;;2.78;57.71
38616;BME280;24370;51.986;4.666;2022-12-18T00:29:48;102859.91;;;3.73;55.86
38616;BME280;24370;51.986;4.666;2022-12-18T00:32:13;102853.84;;;3.21;56.05
38616;BME280;24370;51.986;4.666;2022-12-18T00:34:38;102849.78;;;4.12;54.01
38616;BME280;24370;51.986;4.666;2022-12-18T00:37:04;102840.56;;;3.83;55.17
38616;BME280;24370;51.986;4.666;2022-12-18T00:39:29;102834.50;;;3.82;53.89
38616;BME280;24370;51.986;4.666;2022-12-18T00:41:55;102830.53;;;4.43;51.79
38616;BME280;24370;51.986;4.666;2022-12-18T00:44:38;102838.25;;;4.23;52.46
38616;BME280;24370;51.986;4.666;2022-12-18T00:47:04;102838.81;;;4.36;52.02
38616;BME280;24370;51.986;4.666;2022-12-18T00:49:29;102829.88;;;4.11;51.78
38616;BME280;24370;51.986;4.666;2022-12-18T00:51:55;102836.75;;;4.47;52.05
38616;BME280;24370;51.986;4.666;2022-12-18T00:54:20;102839.06;;;4.78;51.30
38616;BME280;24370;51.986;4.666;2022-12-18T00:56:45;102855.31;;;4.02;52.89
38616;BME280;24370;51.986;4.666;2022-12-18T00:59:11;102853.03;;;4.08;53.29
38616;BME280;24370;51.986;4.666;2022-12-18T01:01:36;102853.19;;;2.93;54.89
38616;BME280;24370;51.986;4.666;2022-12-18T01:04:02;102850.59;;;3.59;55.80
38616;BME280;24370;51.986;4.666;2022-12-18T01:06:28;102851.41;;;3.41;56.45
38616;BME280;24370;51.986;4.666;2022-12-18T01:08:55;102850.84;;;3.47;54.01
38616;BME280;24370;51.986;4.666;2022-12-18T01:11:21;102861.25;;;3.32;55.46
38616;BME280;24370;51.986;4.666;2022-12-18T01:13:47;102858.81;;;2.85;57.26
38616;BME280;24370;51.986;4.666;2022-12-18T01:16:14;102860.28;;;2.80;57.56
38616;BME280;24370;51.986;4.666;2022-12-18T01:18:39;102855.63;;;4.08;53.66
38616;BME280;24370;51.986;4.666;2022-12-18T01:21:10;102861.09;;;2.96;56.06
38616;BME280;24370;51.986;4.666;2022-12-18T01:23:37;102857.91;;;4.02;53.86
38616;BME280;24370;51.986;4.666;2022-12-18T01:26:11;102859.31;;;4.31;52.38
38616;BME280;24370;51.986;4.666;2022-12-18T01:28:37;102857.97;;;2.70;56.40
38616;BME280;24370;51.986;4.666;2022-12-18T01:31:20;102854.16;;;2.95;55.66
38616;BME280;24370;51.986;4.666;2022-12-18T01:33:45;102869.66;;;2.95;56.79
38616;BME280;24370;51.986;4.666;2022-12-18T01:36:18;102866.38;;;2.66;56.85
38616;BME280;24370;51.986;4.666;2022-12-18T01:38:43;102870.22;;;3.22;54.92
38616;BME280;24370;51.986;4.666;2022-12-18T01:41:09;102866.72;;;3.71;53.80
38616;BME280;24370;51.986;4.666;2022-12-18T01:46:06;102880.59;;;2.74;56.91
38616;BME280;24370;51.986;4.666;2022-12-18T01:48:32;102886.47;;;3.19;56.00
38616;BME280;24370;51.986;4.666;2022-12-18T01:51:00;102881.88;;;3.30;54.46
38616;BME280;24370;51.986;4.666;2022-12-18T01:53:26;102879.06;;;4.11;52.64
38616;BME280;24370;51.986;4.666;2022-12-18T01:55:53;102878.50;;;3.82;52.28
38616;BME280;24370;51.986;4.666;2022-12-18T01:58:26;102891.75;;;2.89;55.42
38616;BME280;24370;51.986;4.666;2022-12-18T02:00:54;102895.50;;;3.28;54.96
38616;BME280;24370;51.986;4.666;2022-12-18T02:03:20;102896.00;;;3.20;54.35
38616;BME280;24370;51.986;4.666;2022-12-18T02:05:57;102888.34;;;3.89;52.83
38616;BME280;24370;51.986;4.666;2022-12-18T02:17:07;102884.03;;;4.24;51.97
38616;BME280;24370;51.986;4.666;2022-12-18T02:27:52;102872.84;;;3.73;53.05
38616;BME280;24370;51.986;4.666;2022-12-18T02:30:17;102865.81;;;3.70;52.39
38616;BME280;24370;51.986;4.666;2022-12-18T02:32:49;102875.16;;;3.01;53.09
38616;BME280;24370;51.986;4.666;2022-12-18T02:35:24;102880.47;;;3.04;54.57
38616;BME280;24370;51.986;4.666;2022-12-18T02:37:50;102881.88;;;3.30;54.00
38616;BME280;24370;51.986;4.666;2022-12-18T02:40:17;102879.91;;;3.59;53.17
38616;BME280;24370;51.986;4.666;2022-12-18T02:42:44;102882.09;;;3.18;53.01
38616;BME280;24370;51.986;4.666;2022-12-18T02:45:10;102869.31;;;4.05;50.76
38616;BME280;24370;51.986;4.666;2022-12-18T02:47:42;102865.63;;;3.49;53.05
38616;BME280;24370;51.986;4.666;2022-12-18T02:50:34;102857.69;;;3.63;52.29
38616;BME280;24370;51.986;4.666;2022-12-18T02:53:51;102849.44;;;3.88;52.39
38616;BME280;24370;51.986;4.666;2022-12-18T02:56:18;102853.31;;;3.62;52.67
38616;BME280;24370;51.986;4.666;2022-12-18T02:59:05;102844.63;;;3.10;53.48
38616;BME280;24370;51.986;4.666;2022-12-18T03:02:10;102838.38;;;4.27;49.91
38616;BME280;24370;51.986;4.666;2022-12-18T03:07:11;102837.91;;;2.97;52.86
38616;BME280;24370;51.986;4.666;2022-12-18T03:09:43;102817.97;;;3.28;52.28
38616;BME280;24370;51.986;4.666;2022-12-18T03:12:19;102820.94;;;1.92;54.59
38616;BME280;24370;51.986;4.666;2022-12-18T03:14:52;102819.81;;;2.81;53.32
38616;BME280;24370;51.986;4.666;2022-12-18T03:17:20;102815.88;;;3.20;52.04
38616;BME280;24370;51.986;4.666;2022-12-18T03:19:49;102815.72;;;3.17;51.50
38616;BME280;24370;51.986;4.666;2022-12-18T03:22:16;102813.16;;;3.01;52.42
38616;BME280;24370;51.986;4.666;2022-12-18T03:24:41;102826.69;;;2.64;53.81
38616;BME280;24370;51.986;4.666;2022-12-18T03:27:11;102818.97;;;2.02;55.46
38616;BME280;24370;51.986;4.666;2022-12-18T03:29:44;102814.09;;;2.86;53.13
38616;BME280;24370;51.986;4.666;2022-12-18T03:32:15;102822.50;;;3.15;52.76
38616;BME280;24370;51.986;4.666;2022-12-18T03:34:42;102819.50;;;3.24;52.04
38616;BME280;24370;51.986;4.666;2022-12-18T03:37:09;102815.50;;;3.47;51.02
38616;BME280;24370;51.986;4.666;2022-12-18T03:39:35;102808.59;;;3.46;50.91
38616;BME280;24370;51.986;4.666;2022-12-18T03:42:29;102814.56;;;2.63;52.08
38616;BME280;24370;51.986;4.666;2022-12-18T03:50:27;102795.34;;;3.23;52.30
38616;BME280;24370;51.986;4.666;2022-12-18T03:52:52;102803.69;;;3.01;52.12
38616;BME280;24370;51.986;4.666;2022-12-18T03:55:21;102795.44;;;3.60;50.28
38616;BME280;24370;51.986;4.666;2022-12-18T03:57:48;102797.94;;;2.74;52.53
38616;BME280;24370;51.986;4.666;2022-12-18T04:00:17;102800.59;;;2.76;52.01
38616;BME280;24370;51.986;4.666;2022-12-18T04:02:47;102788.81;;;3.65;49.51
38616;BME280;24370;51.986;4.666;2022-12-18T04:05:15;102792.81;;;3.42;50.04
38616;BME280;24370;51.986;4.666;2022-12-18T04:07:41;102787.13;;;3.49;50.28
38616;BME280;24370;51.986;4.666;2022-12-18T04:10:09;102787.03;;;3.64;49.48
38616;BME280;24370;51.986;4.666;2022-12-18T04:12:37;102801.81;;;3.15;50.95
38616;BME280;24370;51.986;4.666;2022-12-18T04:15:02;102801.09;;;3.18;49.88
38616;BME280;24370;51.986;4.666;2022-12-18T04:17:28;102797.53;;;3.67;49.32
38616;BME280;24370;51.986;4.666;2022-12-18T04:19:53;102804.91;;;3.08;49.91
38616;BME280;24370;51.986;4.666;2022-12-18T04:22:19;102796.22;;;3.75;48.19
38616;BME280;24370;51.986;4.666;2022-12-18T04:24:44;102795.38;;;3.07;49.69
38616;BME280;24370;51.986;4.666;2022-12-18T04:27:09;102804.13;;;3.44;48.48
38616;BME280;24370;51.986;4.666;2022-12-18T04:29:35;102802.13;;;2.56;49.75
38616;BME280;24370;51.986;4.666;2022-12-18T04:32:00;102806.16;;;2.67;50.23
38616;BME280;24370;51.986;4.666;2022-12-18T04:34:25;102802.16;;;3.21;49.04
38616;BME280;24370;51.986;4.666;2022-12-18T04:36:51;102812.78;;;2.62;50.28
38616;BME280;24370;51.986;4.666;2022-12-18T04:39:16;102815.25;;;3.08;49.46
38616;BME280;24370;51.986;4.666;2022-12-18T04:41:42;102811.22;;;3.13;48.78
38616;BME280;24370;51.986;4.666;2022-12-18T04:44:07;102817.28;;;2.49;50.18
38616;BME280;24370;51.986;4.666;2022-12-18T04:46:33;102816.66;;;2.70;50.23
38616;BME280;24370;51.986;4.666;2022-12-18T04:48:58;102820.06;;;2.85;49.43
38616;BME280;24370;51.986;4.666;2022-12-18T04:51:23;102823.63;;;3.04;48.51
38616;BME280;24370;51.986;4.666;2022-12-18T04:53:49;102822.91;;;3.07;48.73
38616;BME280;24370;51.986;4.666;2022-12-18T04:56:15;102818.63;;;2.91;48.91
38616;BME280;24370;51.986;4.666;2022-12-18T04:58:43;102812.72;;;2.77;49.64
38616;BME280;24370;51.986;4.666;2022-12-18T05:01:09;102805.59;;;2.25;50.17
38616;BME280;24370;51.986;4.666;2022-12-18T05:03:35;102804.53;;;2.52;49.64
38616;BME280;24370;51.986;4.666;2022-12-18T05:06:01;102798.91;;;3.26;47.89
38616;BME280;24370;51.986;4.666;2022-12-18T05:08:26;102803.53;;;2.98;48.63
38616;BME280;24370;51.986;4.666;2022-12-18T05:11:09;102804.56;;;3.02;49.16
38616;BME280;24370;51.986;4.666;2022-12-18T05:13:35;102813.06;;;2.35;48.98
38616;BME280;24370;51.986;4.666;2022-12-18T05:16:00;102818.09;;;2.65;50.01
38616;BME280;24370;51.986;4.666;2022-12-18T05:18:26;102818.09;;;2.65;50.35
38616;BME280;24370;51.986;4.666;2022-12-18T05:20:52;102821.75;;;2.85;49.00
38616;BME280;24370;51.986;4.666;2022-12-18T05:23:19;102816.38;;;2.49;49.47
38616;BME280;24370;51.986;4.666;2022-12-18T05:25:53;102811.72;;;2.58;50.00
38616;BME280;24370;51.986;4.666;2022-12-18T05:28:20;102808.13;;;2.87;48.56
38616;BME280;24370;51.986;4.666;2022-12-18T05:30:49;102806.69;;;2.13;49.67
38616;BME280;24370;51.986;4.666;2022-12-18T05:33:15;102804.78;;;2.57;48.80
38616;BME280;24370;51.986;4.666;2022-12-18T05:35:41;102808.81;;;2.20;48.76
38616;BME280;24370;51.986;4.666;2022-12-18T05:38:06;102806.34;;;1.92;49.61
38616;BME280;24370;51.986;4.666;2022-12-18T05:40:32;102802.88;;;2.07;48.61
38616;BME280;24370;51.986;4.666;2022-12-18T05:42:57;102798.00;;;1.81;50.26
38616;BME280;24370;51.986;4.666;2022-12-18T05:45:22;102794.16;;;2.36;49.63
38616;BME280;24370;51.986;4.666;2022-12-18T05:47:48;102795.69;;;1.86;49.72
38616;BME280;24370;51.986;4.666;2022-12-18T05:50:13;102792.84;;;1.81;49.40
38616;BME280;24370;51.986;4.666;2022-12-18T05:52:38;102791.94;;;1.66;49.79
38616;BME280;24370;51.986;4.666;2022-12-18T05:55:04;102792.13;;;2.62;47.82
38616;BME280;24370;51.986;4.666;2022-12-18T05:57:30;102788.00;;;2.17;48.25
38616;BME280;24370;51.986;4.666;2022-12-18T05:59:55;102793.00;;;2.62;47.40
38616;BME280;24370;51.986;4.666;2022-12-18T06:02:20;102791.84;;;1.94;49.19
38616;BME280;24370;51.986;4.666;2022-12-18T06:04:46;102790.91;;;1.62;49.87
38616;BME280;24370;51.986;4.666;2022-12-18T06:07:12;102782.13;;;2.20;48.81
38616;BME280;24370;51.986;4.666;2022-12-18T06:09:38;102787.31;;;2.05;48.62
38616;BME280;24370;51.986;4.666;2022-12-18T06:12:03;102781.41;;;2.23;48.15
38616;BME280;24370;51.986;4.666;2022-12-18T06:14:29;102779.66;;;1.92;49.10
38616;BME280;24370;51.986;4.666;2022-12-18T06:16:54;102773.41;;;2.03;48.64
38616;BME280;24370;51.986;4.666;2022-12-18T06:19:19;102769.28;;;2.22;48.36
38616;BME280;24370;51.986;4.666;2022-12-18T06:21:45;102770.44;;;1.95;49.04
38616;BME280;24370;51.986;4.666;2022-12-18T06:24:10;102761.16;;;1.84;49.25
38616;BME280;24370;51.986;4.666;2022-12-18T06:26:39;102752.13;;;2.38;47.69
38616;BME280;24370;51.986;4.666;2022-12-18T06:29:04;102761.50;;;2.05;48.49
38616;BME280;24370;51.986;4.666;2022-12-18T06:31:30;102761.91;;;2.44;47.47
38616;BME280;24370;51.986;4.666;2022-12-18T06:33:56;102754.81;;;1.77;48.29
38616;BME280;24370;51.986;4.666;2022-12-18T06:36:21;102764.63;;;0.95;50.07
38616;BME280;24370;51.986;4.666;2022-12-18T06:38:47;102758.44;;;1.66;48.71
38616;BME280;24370;51.986;4.666;2022-12-18T06:41:15;102758.72;;;1.71;48.74
38616;BME280;24370;51.986;4.666;2022-12-18T06:43:41;102749.38;;;1.73;48.52
38616;BME280;24370;51.986;4.666;2022-12-18T06:46:06;102749.56;;;1.46;49.11
38616;BME280;24370;51.986;4.666;2022-12-18T06:48:32;102751.06;;;1.72;47.75
38616;BME280;24370;51.986;4.666;2022-12-18T06:50:58;102751.47;;;0.62;50.23
38616;BME280;24370;51.986;4.666;2022-12-18T06:53:23;102753.44;;;0.81;50.54
38616;BME280;24370;51.986;4.666;2022-12-18T06:55:49;102745.63;;;0.79;50.90
38616;BME280;24370;51.986;4.666;2022-12-18T06:58:15;102732.78;;;1.52;49.16
38616;BME280;24370;51.986;4.666;2022-12-18T07:00:40;102734.53;;;1.68;49.19
38616;BME280;24370;51.986;4.666;2022-12-18T07:03:06;102729.38;;;1.09;49.49
38616;BME280;24370;51.986;4.666;2022-12-18T07:05:31;102731.97;;;0.80;49.40
38616;BME280;24370;51.986;4.666;2022-12-18T07:07:57;102717.13;;;1.20;49.29
38616;BME280;24370;51.986;4.666;2022-12-18T07:10:23;102720.13;;;1.72;48.64
38616;BME280;24370;51.986;4.666;2022-12-18T07:12:48;102722.47;;;1.52;48.94
38616;BME280;24370;51.986;4.666;2022-12-18T07:15:14;102724.50;;;0.42;50.51
38616;BME280;24370;51.986;4.666;2022-12-18T07:17:39;102713.38;;;1.59;48.61
38616;BME280;24370;51.986;4.666;2022-12-18T07:20:05;102710.31;;;0.48;50.15
38616;BME280;24370;51.986;4.666;2022-12-18T07:22:30;102691.94;;;1.60;49.00
38616;BME280;24370;51.986;4.666;2022-12-18T07:24:56;102685.13;;;1.31;49.18
38616;BME280;24370;51.986;4.666;2022-12-18T07:27:22;102671.22;;;1.74;47.19
38616;BME280;24370;51.986;4.666;2022-12-18T07:29:47;102666.66;;;1.84;47.39
38616;BME280;24370;51.986;4.666;2022-12-18T07:32:13;102659.47;;;1.17;49.97
38616;BME280;24370;51.986;4.666;2022-12-18T07:34:39;102657.41;;;1.57;49.00
38616;BME280;24370;51.986;4.666;2022-12-18T07:37:04;102652.13;;;1.55;48.90
38616;BME280;24370;51.986;4.666;2022-12-18T07:39:29;102660.41;;;1.34;50.06
38616;BME280;24370;51.986;4.666;2022-12-18T07:41:55;102641.72;;;1.53;48.61
38616;BME280;24370;51.986;4.666;2022-12-18T07:44:40;102645.97;;;1.68;47.90
38616;BME280;24370;51.986;4.666;2022-12-18T07:47:05;102657.72;;;1.63;47.39
38616;BME280;24370;51.986;4.666;2022-12-18T07:49:30;102666.22;;;1.15;49.40
38616;BME280;24370;51.986;4.666;2022-12-18T07:51:56;102675.25;;;1.39;49.00
38616;BME280;24370;51.986;4.666;2022-12-18T07:54:23;102683.53;;;1.33;48.48
38616;BME280;24370;51.986;4.666;2022-12-18T07:56:48;102663.03;;;1.05;49.65
38616;BME280;24370;51.986;4.666;2022-12-18T07:59:14;102667.72;;;1.57;48.69
38616;BME280;24370;51.986;4.666;2022-12-18T08:01:39;102667.59;;;1.86;48.34
38616;BME280;24370;51.986;4.666;2022-12-18T08:04:05;102662.72;;;1.45;48.05
38616;BME280;24370;51.986;4.666;2022-12-18T08:06:30;102652.19;;;2.19;47.02
38616;BME280;24370;51.986;4.666;2022-12-18T08:08:56;102660.16;;;1.91;49.09
38616;BME280;24370;51.986;4.666;2022-12-18T08:11:23;102668.88;;;1.78;48.18
38616;BME280;24370;51.986;4.666;2022-12-18T08:13:49;102662.41;;;2.01;47.41
38616;BME280;24370;51.986;4.666;2022-12-18T08:16:14;102654.66;;;1.70;48.72
38616;BME280;24370;51.986;4.666;2022-12-18T08:18:40;102653.00;;;2.02;47.74
38616;BME280;24370;51.986;4.666;2022-12-18T08:21:14;102649.94;;;2.09;48.18
38616;BME280;24370;51.986;4.666;2022-12-18T08:23:40;102651.03;;;1.05;50.11
38616;BME280;24370;51.986;4.666;2022-12-18T08:26:06;102645.41;;;2.05;48.52
38616;BME280;24370;51.986;4.666;2022-12-18T08:28:32;102651.38;;;2.04;46.63
38616;BME280;24370;51.986;4.666;2022-12-18T08:30:57;102643.88;;;1.61;48.74
38616;BME280;24370;51.986;4.666;2022-12-18T08:33:22;102640.66;;;1.65;48.02
38616;BME280;24370;51.986;4.666;2022-12-18T08:35:48;102642.38;;;2.29;47.44
38616;BME280;24370;51.986;4.666;2022-12-18T08:38:13;102636.69;;;2.19;47.30
38616;BME280;24370;51.986;4.666;2022-12-18T08:40:39;102644.63;;;2.06;48.95
38616;BME280;24370;51.986;4.666;2022-12-18T08:43:04;102650.41;;;2.02;48.98
38616;BME280;24370;51.986;4.666;2022-12-18T08:45:50;102664.03;;;1.99;48.94
38616;BME280;24370;51.986;4.666;2022-12-18T08:48:15;102676.25;;;2.51;47.88
38616;BME280;24370;51.986;4.666;2022-12-18T08:50:40;102682.72;;;2.60;47.35
38616;BME280;24370;51.986;4.666;2022-12-18T08:53:06;102691.72;;;2.18;47.81
38616;BME280;24370;51.986;4.666;2022-12-18T08:55:31;102691.56;;;2.48;48.37
38616;BME280;24370;51.986;4.666;2022-12-18T08:57:57;102687.50;;;2.04;48.37
38616;BME280;24370;51.986;4.666;2022-12-18T09:00:22;102689.47;;;2.25;48.64
38616;BME280;24370;51.986;4.666;2022-12-18T09:02:47;102693.50;;;2.36;48.16
38616;BME280;24370;51.986;4.666;2022-12-18T09:05:13;102690.19;;;1.91;48.59
38616;BME280;24370;51.986;4.666;2022-12-18T09:07:38;102690.28;;;1.61;49.96
38616;BME280;24370;51.986;4.666;2022-12-18T09:10:04;102676.53;;;1.77;50.17
38616;BME280;24370;51.986;4.666;2022-12-18T09:12:30;102676.28;;;2.03;49.81
38616;BME280;24370;51.986;4.666;2022-12-18T09:14:55;102678.66;;;2.32;48.52
38616;BME280;24370;51.986;4.666;2022-12-18T09:17:21;102683.66;;;1.66;49.77
38616;BME280;24370;51.986;4.666;2022-12-18T09:19:47;102667.94;;;2.57;49.32
38616;BME280;24370;51.986;4.666;2022-12-18T09:22:12;102654.78;;;2.36;49.08
38616;BME280;24370;51.986;4.666;2022-12-18T09:24:37;102625.56;;;2.53;49.27
38616;BME280;24370;51.986;4.666;2022-12-18T09:27:03;102626.56;;;2.23;48.49
38616;BME280;24370;51.986;4.666;2022-12-18T09:29:28;102623.47;;;2.63;49.45
38616;BME280;24370;51.986;4.666;2022-12-18T09:31:54;102624.22;;;2.95;48.32
38616;BME280;24370;51.986;4.666;2022-12-18T09:34:19;102629.78;;;3.20;47.67
38616;BME280;24370;51.986;4.666;2022-12-18T09:36:47;102643.81;;;3.62;47.10
38616;BME280;24370;51.986;4.666;2022-12-18T09:39:12;102652.69;;;3.67;46.18
38616;BME280;24370;51.986;4.666;2022-12-18T09:41:47;102653.00;;;3.37;48.29
38616;BME280;24370;51.986;4.666;2022-12-18T09:44:36;102646.63;;;3.30;47.97
38616;BME280;24370;51.986;4.666;2022-12-18T09:47:11;102636.13;;;3.09;48.94
38616;BME280;24370;51.986;4.666;2022-12-18T09:49:42;102639.97;;;3.17;48.33
38616;BME280;24370;51.986;4.666;2022-12-18T09:52:16;102650.16;;;3.14;48.56
38616;BME280;24370;51.986;4.666;2022-12-18T09:54:46;102653.44;;;2.94;49.50
38616;BME280;24370;51.986;4.666;2022-12-18T09:57:20;102655.19;;;2.44;49.67
38616;BME280;24370;51.986;4.666;2022-12-18T09:59:51;102644.69;;;2.74;50.51
38616;BME280;24370;51.986;4.666;2022-12-18T10:02:23;102640.88;;;2.83;49.33
38616;BME280;24370;51.986;4.666;2022-12-18T10:05:06;102627.88;;;3.16;48.25
38616;BME280;24370;51.986;4.666;2022-12-18T10:10:23;102624.16;;;3.47;48.72
38616;BME280;24370;51.986;4.666;2022-12-18T10:15:27;102622.09;;;3.40;48.48
38616;BME280;24370;51.986;4.666;2022-12-18T10:18:07;102615.00;;;3.36;49.08
38616;BME280;24370;51.986;4.666;2022-12-18T10:20:44;102595.19;;;3.00;50.49
38616;BME280;24370;51.986;4.666;2022-12-18T10:28:18;102592.69;;;3.20;49.51
38616;BME280;24370;51.986;4.666;2022-12-18T10:30:44;102595.25;;;3.74;49.44
38616;BME280;24370;51.986;4.666;2022-12-18T10:33:16;102594.31;;;3.54;49.42
38616;BME280;24370;51.986;4.666;2022-12-18T10:35:42;102589.72;;;3.66;48.39
38616;BME280;24370;51.986;4.666;2022-12-18T10:43:27;102570.88;;;3.88;47.66
38616;BME280;24370;51.986;4.666;2022-12-18T10:48:25;102577.50;;;3.44;49.67
38616;BME280;24370;51.986;4.666;2022-12-18T10:50:51;102581.19;;;3.49;48.78
38616;BME280;24370;51.986;4.666;2022-12-18T10:53:23;102580.06;;;4.00;47.72
38616;BME280;24370;51.986;4.666;2022-12-18T10:55:49;102587.53;;;3.94;48.42
38616;BME280;24370;51.986;4.666;2022-12-18T10:58:24;102576.63;;;4.40;47.60
38616;BME280;24370;51.986;4.666;2022-12-18T11:03:36;102571.72;;;4.07;48.28
38616;BME280;24370;51.986;4.666;2022-12-18T11:06:16;102559.34;;;4.81;47.19
38616;BME280;24370;51.986;4.666;2022-12-18T11:08:56;102564.16;;;4.72;47.22
38616;BME280;24370;51.986;4.666;2022-12-18T11:11:23;102554.53;;;4.48;47.19
38616;BME280;24370;51.986;4.666;2022-12-18T11:14:02;102565.06;;;4.32;47.52
38616;BME280;24370;51.986;4.666;2022-12-18T11:16:31;102559.09;;;4.75;48.25
38616;BME280;24370;51.986;4.666;2022-12-18T11:21:46;102565.47;;;5.04;46.64
38616;BME280;24370;51.986;4.666;2022-12-18T11:24:22;102566.03;;;4.76;47.10
38616;BME280;24370;51.986;4.666;2022-12-18T11:26:51;102557.91;;;5.77;45.26
38616;BME280;24370;51.986;4.666;2022-12-18T11:29:23;102547.75;;;5.83;45.21
38616;BME280;24370;51.986;4.666;2022-12-18T11:31:49;102543.22;;;5.55;46.08
38616;BME280;24370;51.986;4.666;2022-12-18T11:34:27;102539.66;;;5.51;45.96
38616;BME280;24370;51.986;4.666;2022-12-18T11:36:55;102531.13;;;6.01;44.97
38616;BME280;24370;51.986;4.666;2022-12-18T11:39:38;102535.16;;;5.94;44.62
38616;BME280;24370;51.986;4.666;2022-12-18T11:42:12;102530.63;;;5.88;45.93
38616;BME280;24370;51.986;4.666;2022-12-18T11:44:51;102520.91;;;5.36;46.32
38616;BME280;24370;51.986;4.666;2022-12-18T11:47:34;102511.97;;;5.74;45.72
38616;BME280;24370;51.986;4.666;2022-12-18T11:50:13;102508.97;;;5.64;46.39
38616;BME280;24370;51.986;4.666;2022-12-18T11:52:40;102491.44;;;5.34;46.34
38616;BME280;24370;51.986;4.666;2022-12-18T11:55:36;102491.59;;;4.72;48.04
38616;BME280;24370;51.986;4.666;2022-12-18T12:01:34;102473.69;;;5.22;47.08
38616;BME280;24370;51.986;4.666;2022-12-18T12:15:50;102442.44;;;4.73;49.41
38616;BME280;24370;51.986;4.666;2022-12-18T12:18:08;102445.84;;;4.93;48.57
38616;BME280;24370;51.986;4.666;2022-12-18T12:26:18;102441.25;;;4.65;48.13
38616;BME280;24370;51.986;4.666;2022-12-18T12:28:56;102428.69;;;5.20;47.55
38616;BME280;24370;51.986;4.666;2022-12-18T12:39:40;102426.41;;;5.76;46.43
38616;BME280;24370;51.986;4.666;2022-12-18T12:42:18;102419.69;;;5.34;46.91
38616;BME280;24370;51.986;4.666;2022-12-18T12:45:06;102420.75;;;5.15;47.15
38616;BME280;24370;51.986;4.666;2022-12-18T12:47:41;102418.44;;;4.78;48.31
38616;BME280;24370;51.986;4.666;2022-12-18T12:50:15;102417.75;;;5.29;47.84
38616;BME280;24370;51.986;4.666;2022-12-18T12:52:52;102417.19;;;5.36;47.43
38616;BME280;24370;51.986;4.666;2022-12-18T12:55:28;102419.59;;;4.42;48.98
38616;BME280;24370;51.986;4.666;2022-12-18T13:07:15;102408.94;;;5.72;46.06
38616;BME280;24370;51.986;4.666;2022-12-18T13:10:36;102391.75;;;4.57;49.09
38616;BME280;24370;51.986;4.666;2022-12-18T13:13:00;102389.53;;;4.89;48.16
38616;BME280;24370;51.986;4.666;2022-12-18T13:15:34;102382.56;;;5.59;47.07
38616;BME280;24370;51.986;4.666;2022-12-18T13:20:44;102376.69;;;4.92;48.39
38616;BME280;24370;51.986;4.666;2022-12-18T13:25:48;102371.31;;;5.35;47.76
38616;BME280;24370;51.986;4.666;2022-12-18T13:28:15;102379.81;;;5.31;47.40
38616;BME280;24370;51.986;4.666;2022-12-18T13:30:43;102374.16;;;5.42;47.59
38616;BME280;24370;51.986;4.666;2022-12-18T13:46:41;102334.56;;;4.98;48.31
38616;BME280;24370;51.986;4.666;2022-12-18T13:48:37;102335.03;;;5.35;47.47
38616;BME280;24370;51.986;4.666;2022-12-18T13:56:44;102323.97;;;5.16;48.20
38616;BME280;24370;51.986;4.666;2022-12-18T13:59:14;102329.09;;;4.68;48.83
38616;BME280;24370;51.986;4.666;2022-12-18T14:01:55;102326.22;;;4.60;49.64
38616;BME280;24370;51.986;4.666;2022-12-18T14:04:25;102311.00;;;5.16;49.03
38616;BME280;24370;51.986;4.666;2022-12-18T14:07:11;102307.22;;;4.82;49.10
38616;BME280;24370;51.986;4.666;2022-12-18T14:09:50;102303.22;;;5.16;48.83
38616;BME280;24370;51.986;4.666;2022-12-18T14:12:23;102306.53;;;5.12;49.43
38616;BME280;24370;51.986;4.666;2022-12-18T14:17:57;102298.03;;;5.16;49.81
38616;BME280;24370;51.986;4.666;2022-12-18T14:20:25;102304.94;;;4.91;48.90
38616;BME280;24370;51.986;4.666;2022-12-18T14:22:51;102302.44;;;5.94;47.60
38616;BME280;24370;51.986;4.666;2022-12-18T14:25:18;102289.13;;;4.84;49.51
38616;BME280;24370;51.986;4.666;2022-12-18T14:27:48;102291.50;;;5.02;49.17
38616;BME280;24370;51.986;4.666;2022-12-18T14:33:09;102275.75;;;5.46;48.49
38616;BME280;24370;51.986;4.666;2022-12-18T14:35:37;102280.88;;;5.70;48.44
38616;BME280;24370;51.986;4.666;2022-12-18T14:38:28;102283.50;;;5.20;48.80
38616;BME280;24370;51.986;4.666;2022-12-18T14:40:58;102282.72;;;5.74;48.58
38616;BME280;24370;51.986;4.666;2022-12-18T14:43:26;102271.81;;;5.07;50.08
38616;BME280;24370;51.986;4.666;2022-12-18T14:45:52;102259.63;;;5.30;49.13
38616;BME280;24370;51.986;4.666;2022-12-18T14:48:21;102253.25;;;5.20;48.45
38616;BME280;24370;51.986;4.666;2022-12-18T14:51:05;102255.03;;;5.21;48.88
38616;BME280;24370;51.986;4.666;2022-12-18T14:53:38;102247.09;;;5.17;48.75
38616;BME280;24370;51.986;4.666;2022-12-18T14:56:14;102237.34;;;4.61;50.08
38616;BME280;24370;51.986;4.666;2022-12-18T14:58:45;102233.72;;;5.30;49.10
38616;BME280;24370;51.986;4.666;2022-12-18T15:01:20;102234.63;;;5.06;49.78
38616;BME280;24370;51.986;4.666;2022-12-18T15:03:45;102242.91;;;4.72;50.00
38616;BME280;24370;51.986;4.666;2022-12-18T15:06:34;102248.44;;;4.81;49.67
38616;BME280;24370;51.986;4.666;2022-12-18T15:09:02;102244.34;;;5.12;50.10